createdAt,value
2023-04-27T00:00:44.106Z,37.70
2023-04-27T00:03:47.495Z,37.56
2023-04-27T00:06:51.669Z,37.84
2023-04-27T00:09:56.223Z,37.69
2023-04-27T00:12:59.318Z,37.52
2023-04-27T00:16:03.964Z,37.53
2023-04-27T00:19:08.704Z,37.61
2023-04-27T00:22:12.172Z,37.46
2023-04-27T00:25:16.685Z,37.57
2023-04-27T00:28:19.723Z,37.63
2023-04-27T00:31:22.783Z,37.49
2023-04-27T00:34:25.900Z,37.71
2023-04-27T00:37:28.961Z,37.52
2023-04-27T00:40:33.420Z,37.44
2023-04-27T00:43:43.775Z,37.53
2023-04-27T00:46:46.871Z,37.58
2023-04-27T00:49:50.589Z,37.55
2023-04-27T00:52:53.654Z,37.33
2023-04-27T00:55:58.769Z,37.28
2023-04-27T00:59:02.116Z,37.40
2023-04-27T01:02:05.244Z,37.52
2023-04-27T01:05:09.059Z,37.43
2023-04-27T01:08:12.112Z,37.09
2023-04-27T01:11:16.911Z,36.99
2023-04-27T01:14:19.938Z,37.19
2023-04-27T01:17:23.267Z,37.31
2023-04-27T01:20:27.256Z,37.23
2023-04-27T01:23:31.731Z,37.21
2023-04-27T01:26:35.095Z,37.25
2023-04-27T01:29:38.228Z,37.07
2023-04-27T01:32:41.604Z,37.08
2023-04-27T01:35:44.748Z,37.25
2023-04-27T01:38:49.213Z,37.38
2023-04-27T01:41:52.278Z,37.18
2023-04-27T01:44:55.395Z,37.35
2023-04-27T01:47:58.596Z,37.08
2023-04-27T01:51:02.065Z,37.12
2023-04-27T01:54:06.665Z,37.08
2023-04-27T01:57:09.759Z,36.97
2023-04-27T02:00:14.045Z,37.04
2023-04-27T02:03:17.347Z,37.28
2023-04-27T02:06:20.634Z,37.14
2023-04-27T02:09:25.210Z,36.80
2023-04-27T02:12:28.368Z,36.63
2023-04-27T02:15:31.437Z,37.14
2023-04-27T02:21:38.348Z,36.69
2023-04-27T02:24:42.865Z,37.03
2023-04-27T02:27:45.894Z,37.11
2023-04-27T02:30:49.625Z,37.11
2023-04-27T02:33:52.802Z,37.13
2023-04-27T02:36:55.845Z,37.47
2023-04-27T02:40:00.947Z,37.28
2023-04-27T02:43:04.053Z,37.30
2023-04-27T02:46:07.334Z,37.00
2023-04-27T02:49:10.428Z,37.21
2023-04-27T02:52:13.744Z,37.45
2023-04-27T02:55:18.387Z,36.96
2023-04-27T02:58:22.775Z,36.97
2023-04-27T03:01:25.919Z,37.17
2023-04-27T03:04:29.111Z,37.22
2023-04-27T03:07:32.203Z,36.92
2023-04-27T03:10:36.720Z,37.11
2023-04-27T03:13:42.601Z,37.03
2023-04-27T03:16:45.867Z,36.86
2023-04-27T03:19:49.586Z,36.95
2023-04-27T03:22:52.617Z,37.30
2023-04-27T03:25:57.089Z,37.23
2023-04-27T03:29:00.185Z,37.32
2023-04-27T03:32:04.556Z,37.46
2023-04-27T03:35:09.175Z,37.64
2023-04-27T03:38:12.304Z,37.64
2023-04-27T03:41:16.766Z,37.56
2023-04-27T03:44:19.887Z,37.46
2023-04-27T03:47:22.991Z,37.52
2023-04-27T03:50:26.425Z,37.31
2023-04-27T03:53:30.747Z,37.10
2023-04-27T03:56:35.298Z,37.37
2023-04-27T03:59:38.279Z,37.05
2023-04-27T04:02:42.338Z,36.11
2023-04-27T04:05:47.317Z,36.27
2023-04-27T04:08:50.504Z,35.75
2023-04-27T04:11:54.934Z,34.47
2023-04-27T04:18:01.275Z,34.75
2023-04-27T04:21:04.984Z,33.68
2023-04-27T04:24:10.296Z,33.32
2023-04-27T04:27:14.744Z,33.15
2023-04-27T04:30:18.142Z,33.56
2023-04-27T04:33:21.608Z,33.00
2023-04-27T04:36:24.695Z,33.10
2023-04-27T04:39:32.103Z,33.24
2023-04-27T04:42:38.074Z,32.49
2023-04-27T04:45:42.119Z,32.75
2023-04-27T04:48:45.095Z,32.20
2023-04-27T04:51:48.116Z,31.93
2023-04-27T04:54:52.984Z,32.32
2023-04-27T04:57:57.478Z,32.44
2023-04-27T05:01:00.522Z,31.87
2023-04-27T05:04:03.790Z,31.95
2023-04-27T05:07:07.258Z,32.23
2023-04-27T05:10:10.682Z,32.10
2023-04-27T05:13:15.186Z,32.23
2023-04-27T05:16:18.280Z,32.07
2023-04-27T05:19:21.581Z,32.19
2023-04-27T05:22:24.576Z,31.93
2023-04-27T05:25:27.618Z,31.82
2023-04-27T05:28:32.044Z,31.93
2023-04-27T05:31:35.130Z,31.90
2023-04-27T05:34:38.206Z,31.80
2023-04-27T05:37:41.343Z,31.71
2023-04-27T05:40:44.564Z,31.64
2023-04-27T05:43:49.120Z,31.23
2023-04-27T05:46:52.179Z,31.29
2023-04-27T05:49:55.594Z,31.35
2023-04-27T05:52:58.644Z,31.20
2023-04-27T05:56:04.481Z,31.30
2023-04-27T05:59:08.998Z,31.29
2023-04-27T06:02:12.039Z,30.59
2023-04-27T06:05:15.313Z,30.74
2023-04-27T06:08:18.468Z,30.96
2023-04-27T06:11:22.209Z,30.75
2023-04-27T06:14:26.861Z,30.96
2023-04-27T06:17:29.889Z,30.71
2023-04-27T06:20:33.066Z,30.28
2023-04-27T06:23:36.163Z,30.60
2023-04-27T06:26:39.211Z,30.99
2023-04-27T06:29:43.659Z,30.35
2023-04-27T06:32:46.653Z,30.65
2023-04-27T06:35:49.875Z,30.43
2023-04-27T06:38:55.711Z,30.46
2023-04-27T06:41:58.849Z,30.84
2023-04-27T06:45:04.208Z,30.72
2023-04-27T06:48:07.445Z,30.87
2023-04-27T06:51:10.638Z,30.66
2023-04-27T06:54:13.845Z,30.82
2023-04-27T06:57:16.965Z,30.94
2023-04-27T07:00:21.864Z,31.02
2023-04-27T07:03:25.053Z,30.95
2023-04-27T07:06:28.828Z,30.99
2023-04-27T07:09:32.666Z,30.64
2023-04-27T07:12:36.479Z,30.58
2023-04-27T07:15:40.962Z,30.59
2023-04-27T07:18:44.171Z,30.63
2023-04-27T07:21:47.276Z,30.87
2023-04-27T07:24:50.378Z,30.66
2023-04-27T07:27:53.645Z,30.93
2023-04-27T07:30:59.026Z,30.88
2023-04-27T07:34:02.088Z,31.15
2023-04-27T07:37:05.639Z,31.25
2023-04-27T07:40:16.627Z,30.80
2023-04-27T07:43:20.375Z,30.97
2023-04-27T07:46:26.389Z,30.74
2023-04-27T07:49:29.547Z,30.85
2023-04-27T07:52:32.569Z,30.75
2023-04-27T07:55:36.207Z,31.05
2023-04-27T07:58:39.339Z,31.14
2023-04-27T08:01:43.792Z,31.38
2023-04-27T08:04:47.236Z,31.05
2023-04-27T08:07:54.183Z,30.91
2023-04-27T08:10:57.661Z,30.55
2023-04-27T08:14:00.689Z,31.06
2023-04-27T08:17:05.157Z,30.67
2023-04-27T08:20:09.883Z,30.57
2023-04-27T08:23:13.178Z,30.87
2023-04-27T08:26:16.690Z,30.48
2023-04-27T08:29:27.789Z,31.06
2023-04-27T08:32:33.211Z,30.49
2023-04-27T08:35:36.315Z,31.18
2023-04-27T08:38:39.313Z,31.12
2023-04-27T08:44:46.844Z,31.37
2023-04-27T08:47:51.773Z,30.98
2023-04-27T08:50:57.193Z,31.38
2023-04-27T08:54:00.702Z,30.54
2023-04-27T08:57:10.669Z,30.86
2023-04-27T09:00:15.221Z,30.69
2023-04-27T09:03:25.839Z,30.66
2023-04-27T09:06:32.799Z,30.81
2023-04-27T09:09:35.868Z,30.83
2023-04-27T09:12:38.936Z,30.78
2023-04-27T09:15:48.272Z,30.86
2023-04-27T09:18:53.496Z,30.92
2023-04-27T09:22:15.559Z,30.94
2023-04-27T09:25:25.696Z,30.41
2023-04-27T09:28:30.940Z,30.04
2023-04-27T09:31:34.521Z,30.59
2023-04-27T09:34:42.239Z,30.86
2023-04-27T09:37:45.816Z,30.91
2023-04-27T09:40:49.578Z,30.55
2023-04-27T09:43:56.339Z,31.05
2023-04-27T09:47:01.428Z,30.91
2023-04-27T09:50:07.245Z,30.70
2023-04-27T09:53:13.864Z,30.91
2023-04-27T09:56:29.182Z,30.73
2023-04-27T09:59:56.758Z,30.24
2023-04-27T10:03:09.521Z,30.50
2023-04-27T10:07:06.023Z,30.11
2023-04-27T10:10:18.691Z,30.15
2023-04-27T10:13:23.988Z,30.58
2023-04-27T10:16:27.063Z,30.98
2023-04-27T10:19:30.345Z,30.96
2023-04-27T10:22:42.231Z,31.05
2023-04-27T10:25:48.005Z,31.32
2023-04-27T10:28:58.995Z,30.98
2023-04-27T10:32:07.836Z,30.59
2023-04-27T10:35:11.094Z,30.64
2023-04-27T10:38:19.632Z,31.13
2023-04-27T10:41:23.629Z,30.46
2023-04-27T10:44:28.874Z,30.94
2023-04-27T10:47:40.308Z,30.75
2023-04-27T10:50:44.915Z,30.74
2023-04-27T10:53:53.827Z,30.74
2023-04-27T10:57:04.160Z,30.50
2023-04-27T11:00:10.303Z,30.61
2023-04-27T11:03:16.823Z,30.51
2023-04-27T11:06:20.258Z,30.39
2023-04-27T11:09:31.188Z,30.48
2023-04-27T11:12:34.342Z,30.22
2023-04-27T11:15:45.468Z,30.43
2023-04-27T11:18:48.728Z,30.39
2023-04-27T11:21:51.783Z,30.76
2023-04-27T11:24:56.467Z,30.38
2023-04-27T11:27:59.499Z,30.78
2023-04-27T11:31:02.945Z,30.19
2023-04-27T11:34:07.590Z,30.25
2023-04-27T11:37:18.360Z,30.46
2023-04-27T11:40:24.585Z,30.17
2023-04-27T11:43:27.925Z,30.01
2023-04-27T11:46:31.356Z,30.31
2023-04-27T11:49:34.561Z,30.43
2023-04-27T11:52:39.393Z,30.38
2023-04-27T11:55:45.103Z,30.36
2023-04-27T11:58:48.422Z,30.04
2023-04-27T12:01:52.874Z,30.83
2023-04-27T12:04:56.092Z,30.25
2023-04-27T12:07:59.530Z,30.24
2023-04-27T12:11:04.040Z,29.82
2023-04-27T12:14:07.360Z,30.39
2023-04-27T12:17:10.574Z,30.43
2023-04-27T12:20:14.706Z,30.49
2023-04-27T12:23:17.716Z,30.14
2023-04-27T12:26:22.263Z,30.31
2023-04-27T12:29:25.514Z,29.87
2023-04-27T12:32:28.782Z,30.08
2023-04-27T12:35:32.206Z,29.80
2023-04-27T12:38:35.344Z,29.65
2023-04-27T12:41:39.784Z,29.45
2023-04-27T12:44:42.862Z,30.07
2023-04-27T12:48:00.842Z,29.77
2023-04-27T12:51:06.795Z,29.83
2023-04-27T12:54:11.318Z,29.90
2023-04-27T12:57:15.796Z,29.32
2023-04-27T13:00:19.243Z,29.71
2023-04-27T13:03:22.358Z,29.89
2023-04-27T13:06:27.156Z,29.47
2023-04-27T13:09:30.297Z,29.80
2023-04-27T13:12:34.951Z,29.70
2023-04-27T13:15:38.828Z,29.82
2023-04-27T13:18:48.469Z,29.67
2023-04-27T13:21:51.663Z,29.78
2023-04-27T13:24:54.761Z,29.70
2023-04-27T13:27:59.334Z,30.92
2023-04-27T13:31:02.463Z,31.46
2023-04-27T13:34:06.183Z,31.59
2023-04-27T13:37:09.414Z,32.15
2023-04-27T13:40:13.029Z,32.57
2023-04-27T13:43:17.533Z,32.67
2023-04-27T13:46:20.642Z,33.13
2023-04-27T13:49:24.067Z,32.94
2023-04-27T13:52:27.188Z,32.60
2023-04-27T13:55:30.324Z,33.69
2023-04-27T13:58:34.866Z,32.75
2023-04-27T14:01:38.175Z,33.09
2023-04-27T14:04:41.268Z,32.50
2023-04-27T14:07:44.366Z,32.69
2023-04-27T14:10:47.734Z,32.47
2023-04-27T14:13:52.212Z,32.96
2023-04-27T14:16:55.402Z,33.50
2023-04-27T14:19:58.547Z,33.50
2023-04-27T14:23:02.024Z,32.83
2023-04-27T14:26:05.895Z,32.42
2023-04-27T14:29:10.373Z,32.42
2023-04-27T14:32:13.734Z,32.70
2023-04-27T14:35:16.936Z,32.21
2023-04-27T14:38:19.982Z,32.45
2023-04-27T14:41:23.041Z,32.83
2023-04-27T14:44:27.465Z,32.27
2023-04-27T14:47:30.616Z,32.77
2023-04-27T14:50:33.925Z,32.89
2023-04-27T14:53:37.007Z,32.71
2023-04-27T14:56:40.149Z,32.87
2023-04-27T14:59:44.647Z,33.49
2023-04-27T15:02:47.788Z,33.23
2023-04-27T15:05:51.649Z,33.47
2023-04-27T15:08:55.104Z,33.57
2023-04-27T15:11:58.233Z,33.58
2023-04-27T15:15:02.799Z,33.58
2023-04-27T15:18:06.196Z,33.92
2023-04-27T15:21:09.347Z,34.15
2023-04-27T15:24:12.417Z,34.56
2023-04-27T15:27:15.810Z,36.05
2023-04-27T15:30:20.240Z,38.37
2023-04-27T15:33:23.535Z,40.65
2023-04-27T15:36:28.457Z,41.06
2023-04-27T15:39:31.798Z,39.40
2023-04-27T15:42:34.931Z,38.60
2023-04-27T15:45:39.427Z,38.08
2023-04-27T15:48:42.571Z,38.13
2023-04-27T15:51:45.676Z,37.68
2023-04-27T15:54:48.887Z,37.39
2023-04-27T15:57:52.020Z,36.98
2023-04-27T16:00:56.550Z,36.81
2023-04-27T16:03:59.729Z,36.75
2023-04-27T16:07:02.860Z,36.52
2023-04-27T16:10:07.193Z,37.04
2023-04-27T16:13:10.432Z,37.17
2023-04-27T16:16:15.229Z,36.71
2023-04-27T16:19:19.178Z,37.31
2023-04-27T16:22:22.379Z,37.31
2023-04-27T16:25:25.437Z,37.13
2023-04-27T16:28:28.588Z,37.12
2023-04-27T16:31:33.382Z,37.07
2023-04-27T16:34:37.636Z,36.69
2023-04-27T16:37:40.837Z,36.66
2023-04-27T16:40:43.861Z,36.42
2023-04-27T16:43:46.939Z,36.45
2023-04-27T16:46:52.126Z,35.73
2023-04-27T16:50:06.965Z,36.18
2023-04-27T16:53:13.755Z,36.26
2023-04-27T16:56:16.833Z,36.30
2023-04-27T16:59:19.907Z,35.98
2023-04-27T17:02:25.672Z,35.93
2023-04-27T17:05:29.210Z,36.04
2023-04-27T17:08:32.294Z,36.13
2023-04-27T17:11:35.481Z,36.30
2023-04-27T17:14:38.601Z,35.93
2023-04-27T17:17:43.054Z,36.06
2023-04-27T17:20:46.186Z,36.45
2023-04-27T17:23:50.728Z,36.88
2023-04-27T17:26:53.802Z,36.81
2023-04-27T17:29:57.975Z,36.89
2023-04-27T17:33:03.308Z,37.02
2023-04-27T17:36:06.960Z,36.67
2023-04-27T17:39:09.997Z,36.71
2023-04-27T17:42:13.190Z,36.96
2023-04-27T17:45:16.523Z,36.56
2023-04-27T17:48:21.173Z,36.53
2023-04-27T17:51:24.515Z,36.64
2023-04-27T17:54:29.957Z,37.20
2023-04-27T17:57:33.638Z,37.02
2023-04-27T18:00:36.859Z,36.49
2023-04-27T18:03:42.198Z,37.20
2023-04-27T18:06:45.440Z,37.14
2023-04-27T18:09:48.508Z,37.08
2023-04-27T18:12:51.601Z,37.38
2023-04-27T18:15:54.707Z,37.30
2023-04-27T18:18:59.397Z,37.14
2023-04-27T18:22:03.469Z,37.18
2023-04-27T18:25:07.292Z,36.94
2023-04-27T18:28:11.183Z,37.11
2023-04-27T18:31:17.977Z,36.97
2023-04-27T18:34:22.419Z,36.93
2023-04-27T18:37:25.537Z,36.72
2023-04-27T18:40:28.634Z,36.84
2023-04-27T18:43:32.058Z,36.32
2023-04-27T18:46:35.365Z,35.47
2023-04-27T18:49:39.797Z,34.97
2023-04-27T18:52:42.818Z,34.12
2023-04-27T18:55:45.884Z,33.91
2023-04-27T18:58:49.179Z,34.27
2023-04-27T19:01:52.435Z,34.09
2023-04-27T19:05:11.518Z,34.53
2023-04-27T19:08:15.825Z,34.34
2023-04-27T19:11:22.389Z,34.60
2023-04-27T19:14:25.919Z,34.71
2023-04-27T19:17:29.066Z,35.05
2023-04-27T19:20:33.741Z,35.13
2023-04-27T19:23:36.905Z,35.52
2023-04-27T19:26:40.357Z,35.39
2023-04-27T19:29:51.402Z,35.54
2023-04-27T19:32:54.628Z,35.71
2023-04-27T19:35:59.240Z,35.78
2023-04-27T19:39:02.305Z,35.51
2023-04-27T19:42:05.530Z,35.40
2023-04-27T19:45:09.802Z,35.68
2023-04-27T19:48:12.940Z,35.61
2023-04-27T19:51:17.460Z,35.53
2023-04-27T19:54:20.509Z,35.54
2023-04-27T19:57:23.691Z,35.44
2023-04-27T20:00:26.942Z,35.88
2023-04-27T20:03:30.390Z,35.59
2023-04-27T20:06:35.187Z,35.75
2023-04-27T20:09:38.297Z,35.29
2023-04-27T20:12:55.236Z,35.92
2023-04-27T20:16:00.171Z,36.03
2023-04-27T20:19:05.345Z,35.97
2023-04-27T20:22:09.879Z,35.62
2023-04-27T20:25:14.736Z,36.05
2023-04-27T20:28:18.066Z,35.79
2023-04-27T20:31:21.393Z,36.08
2023-04-27T20:34:24.484Z,35.88
2023-04-27T20:37:29.316Z,36.06
2023-04-27T20:40:32.638Z,36.09
2023-04-27T20:43:39.179Z,35.89
2023-04-27T20:46:42.300Z,35.72
2023-04-27T20:49:45.411Z,35.60
2023-04-27T20:52:49.903Z,35.63
2023-04-27T20:55:53.132Z,35.85
2023-04-27T20:58:56.271Z,35.78
2023-04-27T21:01:59.371Z,35.70
2023-04-27T21:05:02.559Z,35.43
2023-04-27T21:08:07.158Z,35.13
2023-04-27T21:11:10.459Z,35.49
2023-04-27T21:14:13.684Z,35.46
2023-04-27T21:17:16.894Z,35.50
2023-04-27T21:20:20.277Z,35.72
2023-04-27T21:23:24.741Z,35.25
2023-04-27T21:26:27.861Z,35.29
2023-04-27T21:29:31.109Z,35.16
2023-04-27T21:32:34.269Z,35.66
2023-04-27T21:35:37.345Z,35.38
2023-04-27T21:38:41.913Z,35.38
2023-04-27T21:41:45.038Z,35.49
2023-04-27T21:44:48.056Z,35.46
2023-04-27T21:47:51.216Z,35.53
2023-04-27T21:50:54.414Z,35.39
2023-04-27T21:53:59.128Z,35.32
2023-04-27T21:57:02.320Z,35.26
2023-04-27T22:00:13.826Z,35.20
2023-04-27T22:03:17.667Z,35.08
2023-04-27T22:06:20.980Z,35.19
2023-04-27T22:09:25.588Z,35.11
2023-04-27T22:12:28.671Z,35.09
2023-04-27T22:15:31.770Z,35.42
2023-04-27T22:18:34.891Z,35.21
2023-04-27T22:21:37.937Z,35.24
2023-04-27T22:24:42.493Z,35.31
2023-04-27T22:27:45.789Z,35.26
2023-04-27T22:30:55.883Z,35.19
2023-04-27T22:33:59.776Z,35.17
2023-04-27T22:37:03.315Z,35.21
2023-04-27T22:40:09.838Z,35.01
2023-04-27T22:43:12.939Z,35.08
2023-04-27T22:46:16.025Z,34.81
2023-04-27T22:49:19.073Z,34.88
2023-04-27T22:52:24.663Z,35.04
2023-04-27T22:55:29.329Z,34.73
2023-04-27T22:58:32.498Z,34.97
2023-04-27T23:01:35.756Z,34.74
2023-04-27T23:04:41.185Z,34.67
2023-04-27T23:07:46.364Z,34.75
2023-04-27T23:10:51.124Z,34.87
2023-04-27T23:13:54.756Z,35.02
2023-04-27T23:16:57.906Z,34.87
2023-04-27T23:20:02.597Z,34.58
2023-04-27T23:23:06.300Z,34.80
2023-04-27T23:26:15.133Z,35.15
2023-04-27T23:29:18.157Z,34.98
2023-04-27T23:32:21.829Z,34.86
2023-04-27T23:35:24.962Z,35.15
2023-04-27T23:38:28.062Z,34.95
2023-04-27T23:41:32.458Z,34.92
2023-04-27T23:44:35.461Z,34.93
2023-04-27T23:47:38.683Z,34.92
2023-04-27T23:50:41.745Z,35.16
2023-04-27T23:53:44.757Z,34.94
2023-04-27T23:56:50.988Z,34.85
2023-04-27T23:59:54.054Z,34.95
